Time;durP1;ratioP1;P1;durP2;ratioP2;P2;SDS_P1;SDS_P2;PMS_P1;PMS_P2;Temp;Humidity;BMP_temperature;BMP_pressure;BME280_temperature;BME280_humidity;BME280_pressure;Samples;Min_cycle;Max_cycle;Signal;HPM_P1;HPM_P2
2023/04/03 00:01:09;;;;;;;14.47;11.87;;;10.00;95.20;;;;;;5091438;28;20192;-62
2023/04/03 00:03:36;;;;;;;15.23;11.23;;;10.00;95.10;;;;;;5092383;28;20220;-62
2023/04/03 00:06:06;;;;;;;17.00;12.33;;;9.90;95.00;;;;;;5093997;28;20211;-62
2023/04/03 00:08:33;;;;;;;13.90;11.20;;;9.90;95.00;;;;;;5096027;28;20293;-62
2023/04/03 00:11:01;;;;;;;13.43;11.67;;;9.90;95.10;;;;;;5093433;28;20518;-62
2023/04/03 00:13:28;;;;;;;16.50;11.33;;;9.80;95.00;;;;;;5096534;28;20641;-62
2023/04/03 00:15:55;;;;;;;12.07;10.83;;;9.80;95.00;;;;;;5092006;28;20210;-62
2023/04/03 00:18:22;;;;;;;14.53;11.00;;;9.80;95.00;;;;;;5091402;28;20296;-62
2023/04/03 00:20:49;;;;;;;13.23;10.60;;;9.80;95.10;;;;;;5090794;28;20281;-62
2023/04/03 00:23:16;;;;;;;13.80;10.93;;;9.80;95.10;;;;;;5093288;28;20238;-62
2023/04/03 00:25:44;;;;;;;16.30;11.90;;;9.80;95.10;;;;;;5095451;28;20693;-62
2023/04/03 00:28:11;;;;;;;12.80;11.43;;;9.80;95.10;;;;;;5093602;28;20515;-62
2023/04/03 00:30:38;;;;;;;15.37;11.33;;;9.80;95.10;;;;;;5095383;28;20217;-62
2023/04/03 00:33:05;;;;;;;14.43;10.53;;;9.80;95.00;;;;;;5089476;28;20762;-62
2023/04/03 00:35:34;;;;;;;12.50;10.07;;;9.70;95.00;;;;;;5093491;28;20249;-62
2023/04/03 00:38:02;;;;;;;12.13;10.83;;;9.70;95.00;;;;;;5087232;28;20213;-62
2023/04/03 00:40:34;;;;;;;11.33;10.03;;;9.70;95.00;;;;;;5092385;28;20213;-62
2023/04/03 00:43:05;;;;;;;12.33;9.87;;;9.70;95.00;;;;;;5088776;28;20204;-62
2023/04/03 00:45:42;;;;;;;12.23;10.33;;;9.70;95.00;;;;;;5092222;28;20224;-62
2023/04/03 00:48:18;;;;;;;12.33;9.47;;;9.70;95.00;;;;;;5095903;28;20370;-62
2023/04/03 00:50:46;;;;;;;12.50;10.00;;;9.70;95.00;;;;;;5089458;28;20214;-62
2023/04/03 00:53:20;;;;;;;12.40;9.40;;;9.70;94.90;;;;;;5094072;28;20631;-63
2023/04/03 00:55:49;;;;;;;16.90;10.10;;;9.70;94.90;;;;;;5090878;28;20252;-62
2023/04/03 00:58:18;;;;;;;14.70;9.70;;;9.70;94.90;;;;;;5092149;28;20196;-62
2023/04/03 01:00:55;;;;;;;10.37;9.13;;;9.70;94.90;;;;;;5110034;28;20583;-62
2023/04/03 01:03:23;;;;;;;12.23;9.57;;;9.70;95.00;;;;;;5091317;28;20225;-62
2023/04/03 01:05:51;;;;;;;11.53;8.53;;;9.70;95.10;;;;;;5093335;28;20220;-62
2023/04/03 01:08:18;;;;;;;13.70;8.83;;;9.80;95.10;;;;;;5092696;28;20196;-62
2023/04/03 01:10:45;;;;;;;12.27;8.80;;;9.70;95.10;;;;;;5091776;28;20207;-62
2023/04/03 01:13:26;;;;;;;10.30;9.10;;;9.80;95.20;;;;;;5093683;28;20281;-62
2023/04/03 01:15:54;;;;;;;10.17;8.47;;;9.80;95.10;;;;;;5093313;28;20204;-62
2023/04/03 01:18:23;;;;;;;9.87;8.47;;;9.80;95.00;;;;;;5080974;28;20234;-62
2023/04/03 01:21:35;;;;;;;11.13;8.40;;;9.80;95.10;;;;;;5089642;28;20277;-62
2023/04/03 01:24:31;;;;;;;13.40;9.10;;;9.80;95.00;;;;;;5075928;28;21328;-63
2023/04/03 01:27:00;;;;;;;11.50;8.77;;;9.80;94.90;;;;;;5074027;28;20306;-61
2023/04/03 01:29:28;;;;;;;11.70;9.73;;;9.80;94.90;;;;;;5092619;28;20199;-62
2023/04/03 01:31:57;;;;;;;9.83;8.37;;;9.80;94.90;;;;;;5091223;28;20212;-61
2023/04/03 01:34:26;;;;;;;11.57;9.30;;;9.80;94.90;;;;;;5092979;28;20628;-62
2023/04/03 01:36:54;;;;;;;11.57;9.20;;;9.80;95.00;;;;;;5090541;28;20298;-62
2023/04/03 01:39:21;;;;;;;13.67;9.57;;;9.80;95.00;;;;;;5091938;28;20208;-61
2023/04/03 01:41:50;;;;;;;14.20;9.00;;;9.80;95.00;;;;;;5090933;28;20247;-62
2023/04/03 01:44:23;;;;;;;10.33;9.10;;;9.80;95.00;;;;;;5091846;28;20208;-62
2023/04/03 01:46:50;;;;;;;9.87;8.43;;;9.80;95.10;;;;;;5093906;28;20236;-62
2023/04/03 01:49:17;;;;;;;11.03;9.20;;;9.90;95.10;;;;;;5093988;28;20211;-62
2023/04/03 01:51:44;;;;;;;12.30;9.07;;;9.80;95.00;;;;;;5092066;28;20519;-62
2023/04/03 01:54:11;;;;;;;10.57;8.97;;;9.80;94.90;;;;;;5092067;28;20287;-62
2023/04/03 01:56:38;;;;;;;10.73;8.40;;;9.80;94.70;;;;;;5089673;28;20206;-62
2023/04/03 01:59:07;;;;;;;11.87;9.70;;;9.80;94.60;;;;;;5089611;28;20200;-62
2023/04/03 02:01:34;;;;;;;10.03;8.90;;;9.80;94.60;;;;;;5093700;28;20516;-62
2023/04/03 02:04:01;;;;;;;11.03;8.60;;;9.80;94.60;;;;;;5091989;28;20565;-62
2023/04/03 02:06:28;;;;;;;13.57;9.60;;;9.80;94.60;;;;;;5092659;28;20223;-62
2023/04/03 02:08:55;;;;;;;11.33;9.43;;;9.70;94.50;;;;;;5093047;28;20224;-62
2023/04/03 02:11:22;;;;;;;11.67;9.13;;;9.70;94.60;;;;;;5090971;28;20612;-62
2023/04/03 02:13:49;;;;;;;10.50;8.70;;;9.60;94.60;;;;;;5090351;28;20196;-62
2023/04/03 02:16:16;;;;;;;11.73;8.93;;;9.60;94.70;;;;;;5092993;28;20205;-61
2023/04/03 02:18:44;;;;;;;14.20;9.30;;;9.60;94.80;;;;;;5091168;28;20332;-62
2023/04/03 02:21:11;;;;;;;13.40;8.87;;;9.60;94.90;;;;;;5090067;28;20212;-62
2023/04/03 02:23:38;;;;;;;11.43;9.30;;;9.50;94.90;;;;;;5092905;28;20214;-61
2023/04/03 02:26:13;;;;;;;12.57;9.80;;;9.50;94.80;;;;;;5093067;28;20219;-62
2023/04/03 02:28:43;;;;;;;11.33;9.27;;;9.40;94.80;;;;;;5093895;28;20195;-62
2023/04/03 02:31:10;;;;;;;10.30;9.17;;;9.40;94.80;;;;;;5090688;28;20238;-61
2023/04/03 02:33:40;;;;;;;9.63;8.60;;;9.30;94.70;;;;;;5085415;28;20246;-62
2023/04/03 02:36:09;;;;;;;11.33;8.60;;;9.30;94.70;;;;;;5093021;28;20208;-62
2023/04/03 02:38:39;;;;;;;13.73;9.13;;;9.20;94.70;;;;;;5080739;28;20237;-62
2023/04/03 02:41:08;;;;;;;9.87;8.40;;;9.20;94.70;;;;;;5103537;28;20211;-62
2023/04/03 02:43:36;;;;;;;8.63;7.73;;;9.10;94.70;;;;;;5092624;28;20644;-62
2023/04/03 02:46:04;;;;;;;14.00;8.80;;;9.10;94.60;;;;;;5077115;28;20223;-62
2023/04/03 02:48:31;;;;;;;14.50;9.17;;;9.00;94.60;;;;;;5093106;28;20793;-61
2023/04/03 02:50:58;;;;;;;9.53;8.53;;;9.00;94.70;;;;;;5090366;28;20246;-62
2023/04/03 02:53:25;;;;;;;10.47;9.43;;;9.00;94.80;;;;;;5091138;28;20248;-61
2023/04/03 02:55:52;;;;;;;12.83;9.00;;;9.00;94.90;;;;;;5067773;28;20201;-62
2023/04/03 02:58:19;;;;;;;10.00;8.43;;;9.00;94.90;;;;;;5091874;28;20210;-62
2023/04/03 03:00:46;;;;;;;11.03;8.30;;;9.00;94.90;;;;;;5082520;28;20232;-62
2023/04/03 03:03:14;;;;;;;12.27;9.23;;;9.00;94.90;;;;;;5081596;28;20261;-61
2023/04/03 03:05:41;;;;;;;11.13;8.47;;;9.00;94.80;;;;;;5090829;28;20215;-62
2023/04/03 03:08:08;;;;;;;8.20;7.33;;;9.00;94.80;;;;;;5091531;28;20629;-62
2023/04/03 03:10:35;;;;;;;10.53;8.73;;;9.00;94.70;;;;;;5092264;28;20218;-62
2023/04/03 03:13:03;;;;;;;12.33;8.63;;;9.00;94.60;;;;;;5090444;28;20238;-61
2023/04/03 03:15:30;;;;;;;14.80;9.03;;;9.00;94.60;;;;;;5092691;28;20202;-61
2023/04/03 03:17:57;;;;;;;12.97;8.70;;;9.00;94.60;;;;;;5092317;28;20215;-62
2023/04/03 03:20:25;;;;;;;12.23;10.03;;;9.00;94.60;;;;;;5090743;28;20261;-61
2023/04/03 03:22:52;;;;;;;10.70;9.00;;;8.90;94.50;;;;;;5091239;28;20290;-62
2023/04/03 03:25:19;;;;;;;12.57;9.20;;;8.90;94.60;;;;;;5090018;28;20228;-62
2023/04/03 03:27:46;;;;;;;13.60;9.37;;;8.90;94.60;;;;;;5091891;28;20211;-62
2023/04/03 03:30:13;;;;;;;12.80;9.20;;;8.80;94.90;;;;;;5091071;28;20222;-61
2023/04/03 03:32:40;;;;;;;11.67;9.87;;;8.80;94.60;;;;;;5088532;28;20220;-62
2023/04/03 03:35:07;;;;;;;11.30;9.43;;;8.80;94.60;;;;;;5086764;28;20294;-65
2023/04/03 03:37:34;;;;;;;11.77;9.70;;;8.80;94.60;;;;;;5088056;28;20214;-62
2023/04/03 03:40:02;;;;;;;14.83;9.33;;;8.80;94.50;;;;;;5079914;28;20233;-62
2023/04/03 03:42:31;;;;;;;10.63;9.57;;;8.80;94.60;;;;;;5096561;28;20235;-63
2023/04/03 03:44:58;;;;;;;13.20;10.43;;;8.70;94.60;;;;;;5092412;28;20552;-62
2023/04/03 03:47:25;;;;;;;11.83;9.73;;;8.80;94.70;;;;;;5094972;28;20236;-62
2023/04/03 03:49:52;;;;;;;13.53;9.93;;;8.80;94.70;;;;;;5096839;28;20222;-62
2023/04/03 03:52:19;;;;;;;11.97;9.73;;;8.70;94.80;;;;;;5095410;28;20547;-62
2023/04/03 03:54:46;;;;;;;9.93;8.80;;;8.70;94.80;;;;;;5096474;28;20288;-62
2023/04/03 03:57:16;;;;;;;14.00;9.40;;;8.80;94.80;;;;;;5094824;28;20936;-62
2023/04/03 03:59:44;;;;;;;10.93;9.60;;;8.70;94.70;;;;;;5096529;28;20214;-62
2023/04/03 04:02:11;;;;;;;15.03;9.53;;;8.70;94.70;;;;;;5094280;28;20213;-62
2023/04/03 04:04:38;;;;;;;10.63;9.33;;;8.70;94.70;;;;;;5109220;28;20298;-62
2023/04/03 04:07:06;;;;;;;10.70;9.13;;;8.60;94.70;;;;;;5093378;28;20278;-62
2023/04/03 04:09:34;;;;;;;9.57;8.57;;;8.60;94.70;;;;;;5078892;28;20198;-62
2023/04/03 04:12:01;;;;;;;10.77;9.00;;;8.60;94.80;;;;;;5095671;28;20228;-62
2023/04/03 04:14:31;;;;;;;11.40;9.10;;;8.60;94.70;;;;;;5096197;28;20541;-62
2023/04/03 04:16:59;;;;;;;9.90;8.90;;;8.50;94.70;;;;;;5095639;28;20217;-62
2023/04/03 04:19:27;;;;;;;9.53;8.53;;;8.50;94.80;;;;;;5091397;28;20211;-62
2023/04/03 04:21:54;;;;;;;10.27;8.30;;;8.50;94.80;;;;;;5093468;28;20630;-62
2023/04/03 04:24:25;;;;;;;14.47;8.87;;;8.50;94.80;;;;;;5090714;28;20197;-62
2023/04/03 04:26:54;;;;;;;12.07;9.77;;;8.40;94.80;;;;;;5095501;28;20265;-62
2023/04/03 04:29:22;;;;;;;10.67;8.93;;;8.40;94.80;;;;;;5091093;28;20534;-62
2023/04/03 04:31:51;;;;;;;9.20;8.17;;;8.40;94.90;;;;;;5089188;28;20201;-62
2023/04/03 04:34:21;;;;;;;10.33;7.80;;;8.40;94.90;;;;;;5101012;28;20552;-62
2023/04/03 04:36:48;;;;;;;9.23;8.10;;;8.40;94.90;;;;;;5095500;28;20204;-62
2023/04/03 04:39:15;;;;;;;14.93;9.23;;;8.30;94.80;;;;;;5102746;28;20297;-62
2023/04/03 04:41:43;;;;;;;10.83;8.90;;;8.30;94.80;;;;;;5086248;28;20207;-62
2023/04/03 04:44:11;;;;;;;9.83;8.30;;;8.30;94.80;;;;;;5076278;28;20221;-62
2023/04/03 04:46:38;;;;;;;10.97;9.13;;;8.30;94.80;;;;;;5090324;28;20238;-62
2023/04/03 04:49:07;;;;;;;11.70;8.77;;;8.30;94.80;;;;;;5079131;28;20210;-62
2023/04/03 04:51:35;;;;;;;7.67;6.70;;;8.30;94.80;;;;;;5091304;28;20254;-62
2023/04/03 04:54:21;;;;;;;7.00;6.27;;;8.30;94.80;;;;;;5092087;28;20198;-61
2023/04/03 04:56:49;;;;;;;8.17;7.37;;;8.30;94.80;;;;;;5086213;28;20211;-62
2023/04/03 04:59:17;;;;;;;8.37;6.83;;;8.30;94.70;;;;;;5094016;28;20199;-62
2023/04/03 05:01:48;;;;;;;7.37;6.67;;;8.30;94.60;;;;;;5090236;28;20680;-62
2023/04/03 05:04:17;;;;;;;8.30;7.53;;;8.30;94.50;;;;;;5094022;28;20205;-62
2023/04/03 05:06:48;;;;;;;9.60;7.10;;;8.20;94.50;;;;;;5093920;28;20317;-62
2023/04/03 05:09:20;;;;;;;8.50;7.20;;;8.20;94.50;;;;;;5094274;28;20202;-62
2023/04/03 05:11:50;;;;;;;9.80;7.73;;;8.20;94.60;;;;;;5094436;28;20199;-62
2023/04/03 05:14:21;;;;;;;8.97;6.53;;;8.20;94.60;;;;;;5094772;28;20611;-62
2023/04/03 05:16:52;;;;;;;6.87;6.27;;;8.20;94.60;;;;;;5092209;28;20215;-62
2023/04/03 05:19:22;;;;;;;12.83;9.20;;;8.30;94.40;;;;;;5094876;28;20209;-62
2023/04/03 05:21:52;;;;;;;12.23;9.17;;;8.50;93.90;;;;;;5093183;28;20334;-62
2023/04/03 05:24:21;;;;;;;13.63;9.87;;;8.50;93.60;;;;;;5092003;28;20254;-62
2023/04/03 05:26:49;;;;;;;10.97;8.93;;;8.50;93.60;;;;;;5089034;28;20237;-62
2023/04/03 05:29:17;;;;;;;15.07;9.53;;;8.50;93.80;;;;;;5093191;28;20206;-62
2023/04/03 05:31:45;;;;;;;13.73;8.40;;;8.40;94.10;;;;;;5076777;28;20225;-62
2023/04/03 05:34:13;;;;;;;12.43;9.67;;;8.30;94.20;;;;;;5094196;28;20204;-62
2023/04/03 05:36:42;;;;;;;15.13;11.00;;;8.30;94.50;;;;;;5090979;28;20209;-61
2023/04/03 05:39:11;;;;;;;14.20;10.13;;;8.20;94.70;;;;;;5090827;28;20194;-62
2023/04/03 05:41:41;;;;;;;11.37;10.13;;;8.30;94.90;;;;;;5091352;28;20198;-61
2023/04/03 05:44:09;;;;;;;10.50;9.33;;;8.30;95.20;;;;;;5090067;28;20238;-62
2023/04/03 05:46:37;;;;;;;12.57;9.60;;;8.40;95.40;;;;;;5092633;28;20296;-62
2023/04/03 05:49:08;;;;;;;11.50;8.97;;;8.60;95.70;;;;;;5073585;28;20200;-62
2023/04/03 05:51:37;;;;;;;11.00;9.10;;;8.70;95.30;;;;;;5093814;28;20636;-62
2023/04/03 05:54:22;;;;;;;13.57;10.43;;;8.90;95.40;;;;;;5089751;28;20686;-62
2023/04/03 05:56:52;;;;;;;12.33;10.67;;;9.00;95.10;;;;;;5093840;28;20303;-62
2023/04/03 05:59:21;;;;;;;13.43;10.67;;;9.20;94.80;;;;;;5091101;28;20298;-62
2023/04/03 06:01:51;;;;;;;12.77;11.20;;;9.20;94.60;;;;;;5089329;28;20239;-62
2023/04/03 06:04:19;;;;;;;16.77;11.87;;;9.40;94.70;;;;;;5092972;28;20231;-61
2023/04/03 06:06:54;;;;;;;13.13;10.80;;;9.50;94.70;;;;;;5092351;28;20745;-62
2023/04/03 06:09:26;;;;;;;14.23;10.37;;;9.80;95.20;;;;;;5094378;28;20635;-62
2023/04/03 06:11:54;;;;;;;12.03;10.47;;;10.40;94.50;;;;;;5072975;28;20214;-62
2023/04/03 06:14:25;;;;;;;12.30;10.17;;;10.90;93.20;;;;;;5083411;28;20293;-62
2023/04/03 06:16:53;;;;;;;12.23;10.20;;;11.20;92.50;;;;;;5091728;28;20202;-62
2023/04/03 06:19:21;;;;;;;16.77;11.00;;;11.30;92.40;;;;;;5093057;28;20223;-62
2023/04/03 06:21:52;;;;;;;18.87;12.23;;;11.40;92.40;;;;;;5090954;28;20209;-62
2023/04/03 06:24:23;;;;;;;14.60;12.47;;;11.50;92.60;;;;;;5092238;28;20291;-62
2023/04/03 06:26:53;;;;;;;15.90;12.67;;;11.70;92.40;;;;;;5088717;28;20656;-62
2023/04/03 06:29:21;;;;;;;13.83;11.03;;;11.90;92.00;;;;;;5090857;28;20229;-62
2023/04/03 06:31:50;;;;;;;13.33;10.33;;;12.00;91.70;;;;;;5093968;28;20212;-62
2023/04/03 06:34:17;;;;;;;14.77;11.37;;;12.00;91.50;;;;;;5092628;28;20217;-62
2023/04/03 06:36:45;;;;;;;14.47;11.73;;;12.00;91.80;;;;;;5094444;28;20198;-63
2023/04/03 06:39:16;;;;;;;17.33;12.53;;;11.90;92.20;;;;;;5092794;28;20303;-62
2023/04/03 06:41:44;;;;;;;16.23;11.50;;;12.00;92.50;;;;;;5092508;28;20208;-62
2023/04/03 06:44:12;;;;;;;13.67;11.13;;;11.90;92.60;;;;;;5091014;28;20295;-62
2023/04/03 06:46:40;;;;;;;13.27;11.13;;;11.90;92.90;;;;;;5092369;28;20677;-62
2023/04/03 06:49:08;;;;;;;12.40;11.13;;;11.90;93.10;;;;;;5091857;28;20261;-62
2023/04/03 06:51:36;;;;;;;15.00;12.03;;;12.00;93.40;;;;;;5090035;28;20285;-61
2023/04/03 06:54:05;;;;;;;13.10;11.50;;;12.00;93.90;;;;;;5092206;28;20204;-61
2023/04/03 06:56:34;;;;;;;12.00;10.70;;;12.10;93.70;;;;;;5076389;28;20699;-63
2023/04/03 06:59:02;;;;;;;13.80;10.67;;;12.20;93.80;;;;;;5088525;28;20209;-61
2023/04/03 07:01:31;;;;;;;14.07;12.20;;;12.30;94.00;;;;;;5090562;28;20299;-61
2023/04/03 07:03:59;;;;;;;12.37;11.07;;;12.50;94.10;;;;;;5087987;28;20200;-63
2023/04/03 07:06:27;;;;;;;14.83;12.77;;;12.60;94.10;;;;;;5091845;28;20225;-62
2023/04/03 07:08:55;;;;;;;17.60;15.67;;;12.80;94.10;;;;;;5092533;28;20193;-62
2023/04/03 07:11:22;;;;;;;14.23;11.43;;;12.90;94.20;;;;;;5091778;28;20194;-62
2023/04/03 07:13:50;;;;;;;8.40;7.50;;;13.10;94.20;;;;;;5092733;28;20207;-63
2023/04/03 07:16:18;;;;;;;9.33;6.73;;;13.20;94.20;;;;;;5088783;28;20207;-62
2023/04/03 07:18:46;;;;;;;9.00;6.70;;;13.30;94.20;;;;;;5091852;28;20500;-63
2023/04/03 07:21:13;;;;;;;8.27;6.80;;;13.40;94.00;;;;;;5091835;28;20211;-62
2023/04/03 07:23:40;;;;;;;9.13;6.47;;;13.50;94.10;;;;;;5092420;28;20201;-62
2023/04/03 07:26:08;;;;;;;7.53;6.20;;;13.70;94.30;;;;;;5091534;28;20247;-62
2023/04/03 07:28:36;;;;;;;8.40;6.90;;;13.80;94.40;;;;;;5092697;28;20283;-62
2023/04/03 07:31:08;;;;;;;13.37;6.13;;;13.90;94.40;;;;;;5091878;28;20224;-67
2023/04/03 07:33:36;;;;;;;7.83;5.37;;;14.00;93.90;;;;;;5088443;28;20205;-63
2023/04/03 07:36:06;;;;;;;8.27;6.00;;;14.10;93.70;;;;;;5090449;28;20205;-62
2023/04/03 07:38:37;;;;;;;6.10;5.00;;;14.20;93.20;;;;;;5090422;28;20241;-64
2023/04/03 07:41:05;;;;;;;6.40;5.70;;;14.30;93.10;;;;;;5092933;28;20231;-63
2023/04/03 07:43:34;;;;;;;5.43;4.93;;;14.40;93.20;;;;;;5092328;28;20196;-61
2023/04/03 07:46:02;;;;;;;8.13;5.70;;;14.50;93.20;;;;;;5086866;28;20208;-64
2023/04/03 07:48:29;;;;;;;7.40;4.23;;;14.60;93.00;;;;;;5090749;28;20192;-62
2023/04/03 07:51:00;;;;;;;8.33;4.53;;;14.80;92.80;;;;;;5088641;28;20229;-62
2023/04/03 07:53:28;;;;;;;6.07;4.50;;;14.90;92.50;;;;;;5092802;28;20284;-63
2023/04/03 07:55:57;;;;;;;5.90;4.30;;;14.90;91.90;;;;;;5108194;28;20213;-63
2023/04/03 07:58:25;;;;;;;9.00;5.20;;;15.10;92.00;;;;;;5090945;28;20229;-63
2023/04/03 08:00:52;;;;;;;8.83;4.13;;;15.20;92.10;;;;;;5092524;28;20221;-63
2023/04/03 08:03:19;;;;;;;7.17;3.60;;;15.40;92.00;;;;;;5086965;28;20193;-62
2023/04/03 08:05:49;;;;;;;5.93;4.43;;;15.60;91.00;;;;;;5090272;28;20200;-62
2023/04/03 08:08:19;;;;;;;4.73;3.40;;;15.70;90.80;;;;;;5090354;28;20207;-63
2023/04/03 08:10:52;;;;;;;4.60;4.10;;;15.80;90.70;;;;;;5093107;28;20190;-61
2023/04/03 08:13:22;;;;;;;5.23;3.73;;;15.90;89.00;;;;;;5090436;28;20232;-65
2023/04/03 08:15:50;;;;;;;4.07;3.17;;;16.00;90.20;;;;;;5090775;28;20285;-64
2023/04/03 08:18:21;;;;;;;4.43;3.40;;;16.10;90.20;;;;;;5088240;28;20203;-64
2023/04/03 08:20:50;;;;;;;6.97;3.40;;;16.20;89.20;;;;;;5087828;28;20198;-62
2023/04/03 08:23:19;;;;;;;6.00;3.43;;;16.20;88.70;;;;;;5091118;28;20541;-63
2023/04/03 08:25:46;;;;;;;5.57;3.40;;;16.20;88.70;;;;;;5094904;28;20281;-63
2023/04/03 08:28:14;;;;;;;5.07;3.20;;;16.30;88.60;;;;;;5095736;28;20218;-63
2023/04/03 08:30:43;;;;;;;5.63;3.47;;;16.40;88.70;;;;;;5101505;28;20286;-63
2023/04/03 08:33:11;;;;;;;5.03;3.43;;;16.50;88.00;;;;;;5094959;28;20204;-63
2023/04/03 08:35:41;;;;;;;7.13;3.00;;;16.50;86.80;;;;;;5094073;28;20189;-64
2023/04/03 08:38:10;;;;;;;4.70;2.40;;;16.40;86.70;;;;;;5092582;28;20280;-63
2023/04/03 08:40:40;;;;;;;4.33;2.37;;;16.20;86.70;;;;;;5094641;28;20551;-62
2023/04/03 08:43:39;;;;;;;3.17;1.90;;;16.10;87.70;;;;;;5077260;28;20300;-62
2023/04/03 08:46:12;;;;;;;2.83;1.30;;;16.30;88.10;;;;;;5070473;28;20209;-63
2023/04/03 08:48:43;;;;;;;4.83;1.70;;;16.40;87.20;;;;;;5091821;28;20190;-64
2023/04/03 08:51:17;;;;;;;3.73;1.70;;;16.40;81.60;;;;;;5086558;28;20210;-62
2023/04/03 08:54:04;;;;;;;3.63;1.30;;;16.50;82.80;;;;;;5092773;28;20204;-63
2023/04/03 08:56:34;;;;;;;1.30;1.20;;;16.60;81.80;;;;;;5090155;28;20202;-65
2023/04/03 08:59:12;;;;;;;1.40;1.20;;;16.60;80.50;;;;;;5092129;28;20237;-61
2023/04/03 09:01:41;;;;;;;1.60;1.00;;;16.80;80.50;;;;;;5089118;28;20316;-63
2023/04/03 09:04:15;;;;;;;1.77;1.00;;;16.90;78.30;;;;;;5090191;28;20262;-63
2023/04/03 09:06:53;;;;;;;3.87;1.10;;;16.90;72.40;;;;;;5091415;28;20222;-63
2023/04/03 09:09:34;;;;;;;3.83;0.73;;;17.00;70.60;;;;;;5092208;28;20201;-63
2023/04/03 09:12:09;;;;;;;0.77;0.77;;;17.00;66.80;;;;;;5096206;28;20233;-65
2023/04/03 09:14:45;;;;;;;1.37;0.90;;;17.00;66.90;;;;;;5091043;28;20265;-63
2023/04/03 09:17:24;;;;;;;0.77;0.77;;;17.10;69.90;;;;;;5089918;28;20208;-61
2023/04/03 09:20:30;;;;;;;1.67;0.87;;;17.20;66.20;;;;;;5074261;28;20208;-63
2023/04/03 09:22:59;;;;;;;3.13;0.87;;;17.10;64.40;;;;;;5093542;28;20193;-62
2023/04/03 09:25:38;;;;;;;0.67;0.40;;;17.00;65.80;;;;;;5075281;28;20320;-62
2023/04/03 09:28:09;;;;;;;2.50;0.83;;;16.90;66.40;;;;;;5074780;28;20217;-65
2023/04/03 09:30:38;;;;;;;1.53;0.80;;;17.00;67.30;;;;;;5092174;28;20193;-63
2023/04/03 09:33:08;;;;;;;2.37;0.77;;;17.10;69.10;;;;;;5075853;28;20262;-64
2023/04/03 09:35:40;;;;;;;3.23;0.60;;;17.30;68.30;;;;;;5093219;28;20199;-65
2023/04/03 09:38:20;;;;;;;2.70;1.13;;;17.40;65.10;;;;;;5088658;28;20226;-64
2023/04/03 09:41:15;;;;;;;0.97;0.60;;;17.40;61.70;;;;;;5084308;28;20219;-64
2023/04/03 09:43:53;;;;;;;2.00;0.70;;;17.40;60.30;;;;;;5090050;28;20208;-62
2023/04/03 09:46:34;;;;;;;2.40;0.97;;;17.50;64.00;;;;;;5044584;28;1332583;-63
2023/04/03 09:49:05;;;;;;;2.23;0.70;;;17.50;61.00;;;;;;5091640;28;20211;-62
2023/04/03 09:51:37;;;;;;;1.97;0.90;;;17.60;64.60;;;;;;5089312;28;20641;-63
2023/04/03 09:54:32;;;;;;;1.80;1.20;;;17.70;66.20;;;;;;5073713;28;20208;-64
2023/04/03 09:57:09;;;;;;;0.67;0.60;;;17.80;65.10;;;;;;5089980;28;20630;-67
2023/04/03 09:59:57;;;;;;;0.77;0.73;;;17.80;62.70;;;;;;5089579;28;20694;-64
2023/04/03 10:02:40;;;;;;;0.87;0.67;;;17.80;61.80;;;;;;5073857;28;20297;-64
2023/04/03 10:05:50;;;;;;;3.80;1.00;;;17.80;64.70;;;;;;5074224;28;20218;-64
2023/04/03 10:08:20;;;;;;;2.30;0.80;;;18.10;63.30;;;;;;5021372;28;20225;-66
2023/04/03 10:11:07;;;;;;;1.00;0.90;;;18.30;61.70;;;;;;5036259;28;20276;-64
2023/04/03 10:13:35;;;;;;;6.00;1.40;;;18.30;60.00;;;;;;5079004;28;20284;-64
2023/04/03 10:16:22;;;;;;;1.07;0.70;;;18.20;61.80;;;;;;5089889;28;20636;-66
2023/04/03 10:19:17;;;;;;;0.67;0.67;;;18.00;61.30;;;;;;5068258;28;20202;-64
2023/04/03 10:22:00;;;;;;;7.07;1.00;;;17.80;61.30;;;;;;5081246;28;20242;-65
2023/04/03 10:24:33;;;;;;;1.50;0.90;;;17.60;59.90;;;;;;5088284;28;20191;-65
2023/04/03 10:27:28;;;;;;;1.10;1.00;;;17.40;58.80;;;;;;5091944;28;20213;-66
2023/04/03 10:30:37;;;;;;;1.90;1.80;;;17.10;62.30;;;;;;5073184;28;20228;-65
2023/04/03 10:33:20;;;;;;;5.40;2.77;;;16.90;65.80;;;;;;5090228;28;20215;-65
2023/04/03 10:36:24;;;;;;;5.97;4.30;;;16.70;69.70;;;;;;5091460;28;20310;-64
2023/04/03 10:39:19;;;;;;;4.17;3.77;;;16.50;72.00;;;;;;5089968;28;20691;-63
2023/04/03 10:41:54;;;;;;;7.67;4.63;;;16.40;73.60;;;;;;5093445;28;20287;-64
2023/04/03 10:44:57;;;;;;;4.17;3.53;;;16.40;74.60;;;;;;5086018;28;20260;-65
2023/04/03 10:47:45;;;;;;;5.27;4.10;;;16.50;75.00;;;;;;5088298;28;20255;-64
2023/04/03 10:50:25;;;;;;;5.70;3.47;;;16.60;75.40;;;;;;5071138;28;20211;-66
2023/04/03 10:53:32;;;;;;;5.83;3.30;;;16.60;76.20;;;;;;5093427;28;20193;-64
2023/04/03 10:56:15;;;;;;;6.10;3.53;;;16.60;75.10;;;;;;5090099;28;20194;-66
2023/04/03 10:58:57;;;;;;;3.00;2.70;;;16.50;74.40;;;;;;5091952;28;20205;-66
2023/04/03 11:01:32;;;;;;;3.67;1.60;;;16.40;74.70;;;;;;5092257;28;20205;-66
2023/04/03 11:04:05;;;;;;;2.90;1.33;;;16.40;73.60;;;;;;5091287;28;20537;-66
2023/04/03 11:06:50;;;;;;;6.90;2.33;;;16.40;72.60;;;;;;5091357;28;20544;-70
2023/04/03 11:09:27;;;;;;;5.30;2.07;;;16.50;71.50;;;;;;5093682;28;20287;-63
2023/04/03 11:12:04;;;;;;;7.93;1.73;;;16.60;70.70;;;;;;5107572;28;20540;-65
2023/04/03 11:14:37;;;;;;;3.80;1.67;;;16.70;69.00;;;;;;5088877;28;20528;-65
2023/04/03 11:17:09;;;;;;;4.03;1.53;;;16.90;69.20;;;;;;5073706;28;20290;-68
2023/04/03 11:19:51;;;;;;;1.93;1.33;;;17.20;69.00;;;;;;5092538;28;20646;-64
2023/04/03 11:22:28;;;;;;;4.60;1.50;;;17.50;67.40;;;;;;5085732;28;20223;-66
2023/04/03 11:25:12;;;;;;;8.17;1.40;;;17.70;66.30;;;;;;5102431;28;20204;-65
2023/04/03 11:27:53;;;;;;;5.80;1.23;;;18.00;66.50;;;;;;5065139;28;20224;-65
2023/04/03 11:30:23;;;;;;;5.80;1.57;;;18.20;64.90;;;;;;5105128;28;20211;-64
2023/04/03 11:33:33;;;;;;;1.73;1.40;;;18.40;64.50;;;;;;5093028;28;20197;-66
2023/04/03 11:36:05;;;;;;;5.17;1.67;;;18.60;62.80;;;;;;5079910;28;20218;-65
2023/04/03 11:38:56;;;;;;;2.47;1.23;;;18.80;63.70;;;;;;5092938;28;20562;-65
2023/04/03 11:41:34;;;;;;;3.70;1.37;;;18.70;61.00;;;;;;5074558;28;20197;-67
2023/04/03 11:44:28;;;;;;;5.57;1.47;;;18.40;62.40;;;;;;5089101;28;20291;-66
2023/04/03 11:47:00;;;;;;;4.10;2.20;;;18.20;63.40;;;;;;5081098;28;20662;-65
2023/04/03 11:49:52;;;;;;;4.40;1.93;;;18.10;63.50;;;;;;5072932;28;20204;-66
2023/04/03 11:52:42;;;;;;;5.17;1.37;;;18.30;63.50;;;;;;5090210;28;20276;-66
2023/04/03 11:55:24;;;;;;;4.13;1.23;;;18.30;62.00;;;;;;5091448;28;20724;-65
2023/04/03 11:57:57;;;;;;;11.73;2.03;;;18.30;62.30;;;;;;5093590;28;20231;-66
2023/04/03 12:00:47;;;;;;;5.23;2.10;;;18.30;63.30;;;;;;5093461;28;20227;-67
2023/04/03 12:03:42;;;;;;;5.60;1.77;;;18.50;62.60;;;;;;5085313;28;20679;-66
2023/04/03 12:06:13;;;;;;;5.77;1.30;;;18.70;62.40;;;;;;5075990;28;20306;-65
2023/04/03 12:08:42;;;;;;;9.30;1.30;;;18.90;61.70;;;;;;5079233;28;20265;-65
2023/04/03 12:11:10;;;;;;;5.13;1.60;;;19.10;61.60;;;;;;5093342;28;20201;-66
2023/04/03 12:13:57;;;;;;;3.00;1.60;;;19.30;61.00;;;;;;5092617;28;20287;-67
2023/04/03 12:16:29;;;;;;;2.90;1.13;;;19.40;57.60;;;;;;5066260;28;20210;-66
2023/04/03 12:19:02;;;;;;;2.87;1.00;;;19.40;57.70;;;;;;5094017;28;20594;-66
2023/04/03 12:21:58;;;;;;;1.27;0.93;;;19.40;55.00;;;;;;5075906;28;20204;-66
2023/04/03 12:24:30;;;;;;;8.60;0.50;;;19.30;53.40;;;;;;5068967;28;20208;-66
2023/04/03 12:27:09;;;;;;;3.83;1.20;;;19.20;51.40;;;;;;5083735;28;20214;-67
2023/04/03 12:30:00;;;;;;;2.20;0.80;;;19.10;49.20;;;;;;5073939;28;20205;-66
2023/04/03 12:32:41;;;;;;;3.67;1.00;;;18.90;50.80;;;;;;5086080;28;20195;-66
2023/04/03 12:35:28;;;;;;;0.90;0.80;;;18.80;50.20;;;;;;5095259;28;20265;-66
2023/04/03 12:38:16;;;;;;;1.30;0.83;;;18.70;50.10;;;;;;5066914;28;20671;-66
2023/04/03 12:41:03;;;;;;;3.67;0.80;;;18.60;48.40;;;;;;5072146;28;20555;-66
2023/04/03 12:43:57;;;;;;;0.80;0.70;;;18.60;46.90;;;;;;5093207;28;20204;-66
2023/04/03 12:46:37;;;;;;;2.30;0.83;;;18.60;49.30;;;;;;5091323;28;20232;-66
2023/04/03 12:49:33;;;;;;;3.47;0.60;;;18.50;48.70;;;;;;5094979;28;20314;-66
2023/04/03 12:52:05;;;;;;;2.30;0.73;;;18.60;48.20;;;;;;5092543;28;20269;-66
2023/04/03 12:54:40;;;;;;;3.13;0.80;;;18.50;48.20;;;;;;5077775;28;21122;-66
2023/04/03 12:57:19;;;;;;;1.30;0.90;;;18.50;49.20;;;;;;5093110;28;20234;-66
2023/04/03 12:59:47;;;;;;;1.63;0.87;;;18.50;48.70;;;;;;5103342;28;20542;-66
2023/04/03 13:02:27;;;;;;;2.63;1.10;;;18.50;47.80;;;;;;5092665;28;20304;-65
2023/04/03 13:05:09;;;;;;;1.00;0.80;;;18.50;49.10;;;;;;5092300;28;20200;-66
2023/04/03 13:07:40;;;;;;;0.70;0.70;;;18.50;48.00;;;;;;5090755;28;20661;-65
2023/04/03 13:10:08;;;;;;;2.43;1.00;;;18.40;46.10;;;;;;5095263;28;20270;-68
2023/04/03 13:12:46;;;;;;;2.03;0.80;;;18.40;48.60;;;;;;5073319;28;20258;-64
2023/04/03 13:15:22;;;;;;;3.33;0.87;;;18.30;48.70;;;;;;5065751;28;20275;-65